Airfield :
LOGIN :

Register | Disclaimer

   EN    FR    IT 

 










Legend :    VFR   Marginal VFR   IFR   Intensive IFR   Very Intensive IFR
Visi :
Ceiling :
>= 8 km
>= 3000ft
5 to 8 km
1000 to 3000 ft
1500m to 5 km
500 to 1000 ft
800 to 1500m
200 to 500 ft
< 800m
< 200 ft
Symbols :   Thunderstorms  Fog  Heavy snow  Heavy precipitations  Wind > 20 kt
SIGMETs :     Misc.  Thunderstorms  Icing  Turbulence  Mountain Waves  Volcanic Ashes







- Airport Elevation : 226 ft
- IATA code : BEX


EGUB - RAF Benson

CURRENT METAR :
  • 191150Z 14012KT 7000 HZ BKN012 BKN016 17/15 Q1002 GRN TEMPO 9999 NSW FEW012 BKN016 WHT

EXPIRED METARs :
  • 191050Z 12008KT 6000 HZ SCT010 BKN060 17/15 Q1003 GRN TEMPO 8000 FEW012 BLU
  • 190950Z 11005KT 4000 -RA BKN005 BKN050 16/15 Q1004 YLO1 TEMPO 3000 -RADZ YLO1
  • 190939Z 13006KT 3000 -RA OVC005 16/15 Q1004 YLO1 BECMG 4000 BR OVC008 GRN

TAF TAF EGUB
Valid from the 19 at 12:00 until the 19 at 21:00 UTC


191056Z 1912/1921 15010KT 9999 FEW012 BKN050
BECMG 1912/1914 BKN010
TEMPO 1913/1915 4000 RADZ BKN006
BECMG 1915/1917 FEW025
BECMG 1918/1920 18018G28KT 7000 -RA BKN010
ATIS : +44 1491-837766 (x7524)
No reported NOTAMs for that airfield.



MET'MAP, your aeronautical weather chart ! - Copyright ORBIFLY December 2007 - Disclaimer

ORBIFLY MET'MAP TEAM :

Programming & Development : Alexandra Zaïnal
Concept & Development : Baudouin d'Aumeries
Co-Development & Prog : Marc-Olivier Méhu
Technical & hardware support : Manuel Goepfert

Contact : metmap@orbifly.com




SOURCES & CREDITS :

   NOAA